Time;durP1;ratioP1;P1;durP2;ratioP2;P2;SDS_P1;SDS_P2;PMS_P1;PMS_P2;Temp;Humidity;BMP_temperature;BMP_pressure;BME280_temperature;BME280_humidity;BME280_pressure;Samples;Min_cycle;Max_cycle;Signal;HPM_P1;HPM_P2
2022/01/10 00:00:56;;;;;;;51.00;25.60;;;;;;;1.80;62.22;99764.03;5440528;32;34540;-66
2022/01/10 00:03:58;;;;;;;49.70;24.50;;;;;;;2.29;60.73;99765.94;5424468;32;34271;-68
2022/01/10 00:07:00;;;;;;;47.33;25.03;;;;;;;1.62;62.71;99763.41;5455073;32;34020;-66
2022/01/10 00:10:03;;;;;;;47.60;23.67;;;;;;;2.95;58.41;99760.50;5450707;32;34020;-66
2022/01/10 00:13:06;;;;;;;50.30;25.13;;;;;;;1.47;62.31;99763.59;5447322;32;34718;-68
2022/01/10 00:16:08;;;;;;;49.23;23.27;;;;;;;1.47;62.88;99763.59;5424874;32;34234;-68
2022/01/10 00:19:10;;;;;;;49.70;24.70;;;;;;;2.33;60.79;99741.69;5439774;32;35733;-67
2022/01/10 00:22:12;;;;;;;54.03;25.50;;;;;;;1.62;61.38;99755.66;5441378;32;34565;-67
2022/01/10 00:25:17;;;;;;;43.90;23.07;;;;;;;2.00;61.31;99756.87;5449761;32;34184;-68
2022/01/10 00:28:19;;;;;;;48.20;23.70;;;;;;;1.67;61.92;99754.72;5457688;32;33883;-66
2022/01/10 00:31:21;;;;;;;48.80;23.70;;;;;;;1.31;62.15;99762.91;5451843;32;35182;-67
2022/01/10 00:34:24;;;;;;;49.93;23.63;;;;;;;1.40;61.90;99756.78;5454754;32;35608;-67
2022/01/10 00:37:27;;;;;;;48.07;22.87;;;;;;;1.52;61.96;99761.81;5447277;32;33886;-68
2022/01/10 00:40:29;;;;;;;43.70;23.43;;;;;;;1.71;61.36;99761.56;5452252;32;36392;-65
2022/01/10 00:43:39;;;;;;;48.37;24.33;;;;;;;0.84;63.65;99765.13;5450176;32;34201;-66
2022/01/10 00:46:41;;;;;;;51.37;23.33;;;;;;;1.33;61.84;99768.06;5437802;32;35102;-66
2022/01/10 00:49:45;;;;;;;47.63;22.70;;;;;;;0.96;62.78;99765.88;5456801;32;34893;-66
2022/01/10 00:52:47;;;;;;;45.35;22.25;;;;;;;1.38;61.58;99762.84;5436768;32;34538;-66
2022/01/10 00:55:49;;;;;;;45.33;21.80;;;;;;;1.58;59.17;99769.50;5442941;32;34023;-65
2022/01/10 00:58:51;;;;;;;44.10;21.13;;;;;;;1.17;59.06;99763.97;5451252;32;34702;-66
2022/01/10 01:01:53;;;;;;;44.40;20.67;;;;;;;1.46;58.53;99774.81;5449137;32;34432;-69
2022/01/10 01:04:56;;;;;;;41.03;20.53;;;;;;;1.46;58.19;99774.81;5428268;32;34665;-68
2022/01/10 01:08:01;;;;;;;45.20;21.87;;;;;;;1.96;57.08;99770.72;5421848;32;34708;-69
2022/01/10 01:14:11;;;;;;;41.40;21.63;;;;;;;2.07;56.92;99776.62;5441262;32;34858;-68
2022/01/10 01:17:26;;;;;;;43.03;21.60;;;;;;;2.27;56.47;99780.66;5441389;32;34331;-68
2022/01/10 01:24:06;;;;;;;45.42;23.27;;;;;;;2.16;58.07;99788.59;5449724;32;34386;-65
2022/01/10 01:27:04;;;;;;;48.73;23.27;;;;;;;1.55;59.98;99787.69;5445381;32;33854;-67
2022/01/10 01:30:08;;;;;;;48.83;23.27;;;;;;;2.31;57.51;99779.72;5449492;32;34031;-67
2022/01/10 01:33:13;;;;;;;47.00;24.00;;;;;;;1.90;58.55;99783.78;5442100;32;34170;-67
2022/01/10 01:36:20;;;;;;;47.20;23.47;;;;;;;2.32;57.52;99766.75;5448497;32;34941;-65
2022/01/10 01:39:25;;;;;;;46.20;24.07;;;;;;;2.07;58.17;99779.22;5446120;32;34111;-66
2022/01/10 01:42:37;;;;;;;43.13;23.60;;;;;;;2.06;58.24;99787.87;5454804;32;34095;-66
2022/01/10 01:45:42;;;;;;;47.10;23.90;;;;;;;3.14;55.24;99777.44;5437849;32;34879;-67
2022/01/10 01:48:45;;;;;;;47.27;23.27;;;;;;;3.52;53.99;99778.44;5450873;32;36069;-66
2022/01/10 01:51:47;;;;;;;45.83;22.13;;;;;;;3.57;54.04;99780.97;5450684;32;35049;-67
2022/01/10 01:54:49;;;;;;;44.33;22.30;;;;;;;3.45;54.09;99780.31;5433225;32;34827;-66
2022/01/10 01:57:51;;;;;;;48.37;23.80;;;;;;;1.62;59.73;99799.69;5456354;32;34119;-68
2022/01/10 02:00:54;;;;;;;43.53;22.90;;;;;;;2.11;58.40;99791.25;5451418;32;34849;-65
2022/01/10 02:03:56;;;;;;;43.85;22.85;;;;;;;2.35;57.56;99789.19;5440188;32;34984;-67
2022/01/10 02:06:59;;;;;;;49.63;23.47;;;;;;;2.18;58.20;99790.28;5446569;32;33952;-68
2022/01/10 02:10:04;;;;;;;46.80;23.27;;;;;;;2.53;58.01;99791.50;5441971;32;33915;-66
2022/01/10 02:13:06;;;;;;;46.13;23.33;;;;;;;2.42;57.36;99794.25;5439537;32;35088;-66
2022/01/10 02:16:10;;;;;;;47.43;23.47;;;;;;;2.38;57.76;99787.41;5449562;32;34232;-66
2022/01/10 02:19:12;;;;;;;49.83;23.93;;;;;;;2.46;57.61;99786.44;5456114;32;34132;-66
2022/01/10 02:22:15;;;;;;;43.23;23.80;;;;;;;1.91;56.33;99790.66;5450015;32;34202;-66
2022/01/10 02:25:17;;;;;;;46.27;24.17;;;;;;;2.01;56.44;99792.25;5454900;32;34552;-66
2022/01/10 02:28:19;;;;;;;51.93;24.97;;;;;;;2.39;55.23;99789.13;5434556;32;33945;-68
2022/01/10 02:31:21;;;;;;;49.90;24.03;;;;;;;2.41;54.86;99792.53;5432065;32;34146;-68
2022/01/10 02:34:25;;;;;;;42.73;22.43;;;;;;;3.36;52.14;99782.25;5435927;32;34781;-66
2022/01/10 02:37:35;;;;;;;45.57;24.30;;;;;;;3.65;51.50;99779.91;5433706;32;35323;-66
2022/01/10 02:40:37;;;;;;;44.70;23.33;;;;;;;3.68;51.51;99776.41;5458282;32;34070;-66
2022/01/10 02:43:39;;;;;;;44.93;24.43;;;;;;;1.96;56.60;99793.19;5424816;32;34434;-66
2022/01/10 02:46:42;;;;;;;46.80;24.13;;;;;;;2.43;56.75;99790.75;5443963;32;34090;-66
2022/01/10 02:49:44;;;;;;;46.90;23.80;;;;;;;2.93;55.59;99781.28;5450173;32;34370;-66
2022/01/10 02:52:47;;;;;;;49.00;24.63;;;;;;;2.08;57.88;99791.28;5456727;32;34658;-66
2022/01/10 02:55:49;;;;;;;44.30;23.87;;;;;;;2.16;58.14;99796.38;5440981;32;35024;-66
2022/01/10 02:58:51;;;;;;;48.13;24.97;;;;;;;1.88;59.09;99801.09;5452140;32;34394;-66
2022/01/10 03:01:54;;;;;;;49.17;25.13;;;;;;;1.71;59.92;99800.44;5457224;32;34866;-68
2022/01/10 03:04:57;;;;;;;52.97;25.95;;;;;;;1.43;60.78;99808.53;5436522;32;33882;-68
2022/01/10 03:08:02;;;;;;;47.50;25.23;;;;;;;0.99;61.58;99809.00;5425341;32;33820;-69
2022/01/10 03:11:04;;;;;;;49.20;24.67;;;;;;;1.29;60.69;99813.88;5450509;32;34111;-67
2022/01/10 03:14:06;;;;;;;52.07;25.67;;;;;;;1.78;59.25;99813.28;5445064;32;34090;-68
2022/01/10 03:17:10;;;;;;;55.13;27.27;;;;;;;1.33;60.16;99809.50;5428638;32;33870;-65
2022/01/10 03:20:12;;;;;;;51.65;27.10;;;;;;;2.50;56.65;99806.22;5425585;32;34359;-67
2022/01/10 03:23:14;;;;;;;50.40;26.40;;;;;;;2.05;58.00;99796.50;5443579;32;34087;-66
2022/01/10 03:26:18;;;;;;;53.50;25.10;;;;;;;1.90;59.21;99818.31;5452005;32;35495;-67
2022/01/10 03:29:20;;;;;;;51.63;24.80;;;;;;;1.51;59.47;99811.88;5457365;32;34790;-66
2022/01/10 03:32:22;;;;;;;50.43;25.17;;;;;;;1.75;58.93;99820.25;5438248;32;33914;-67
2022/01/10 03:35:24;;;;;;;49.03;25.97;;;;;;;2.32;57.70;99817.72;5450234;32;34698;-65
2022/01/10 03:38:26;;;;;;;50.63;26.43;;;;;;;2.15;57.89;99816.25;5452477;32;35182;-65
2022/01/10 03:41:29;;;;;;;57.10;28.37;;;;;;;1.84;58.74;99823.56;5453572;32;35294;-68
2022/01/10 03:44:31;;;;;;;47.00;25.67;;;;;;;2.33;57.03;99825.50;5433955;32;34344;-69
2022/01/10 03:47:33;;;;;;;53.33;28.27;;;;;;;2.55;56.80;99830.38;5452108;32;33991;-65
2022/01/10 03:50:35;;;;;;;46.87;25.83;;;;;;;2.73;55.71;99837.88;5457845;32;34009;-68
2022/01/10 03:53:37;;;;;;;49.67;26.53;;;;;;;2.84;56.08;99835.13;5436478;32;34767;-68
2022/01/10 03:56:40;;;;;;;52.50;27.03;;;;;;;2.54;56.56;99845.09;5452775;32;34767;-67
2022/01/10 03:59:42;;;;;;;52.20;26.97;;;;;;;2.65;56.25;99848.37;5442414;32;35038;-66
2022/01/10 04:02:51;;;;;;;53.00;26.53;;;;;;;2.66;56.46;99855.28;5421966;32;33905;-68
2022/01/10 04:05:54;;;;;;;55.17;28.87;;;;;;;3.17;54.62;99837.12;5443380;32;34099;-68
2022/01/10 04:08:56;;;;;;;50.00;27.27;;;;;;;3.19;53.84;99840.53;5447175;32;33981;-66
2022/01/10 04:11:58;;;;;;;54.83;28.30;;;;;;;3.18;53.70;99854.41;5454302;32;33797;-66
2022/01/10 04:15:00;;;;;;;52.30;26.63;;;;;;;2.90;54.96;99858.38;5431533;32;34687;-65
2022/01/10 04:18:03;;;;;;;54.20;28.20;;;;;;;3.74;52.53;99852.50;5451257;32;34665;-67
2022/01/10 04:21:05;;;;;;;51.77;26.93;;;;;;;2.15;57.28;99867.25;5458690;32;34206;-67
2022/01/10 04:24:07;;;;;;;50.80;26.60;;;;;;;2.25;57.15;99867.97;5435468;32;34259;-67
2022/01/10 04:27:09;;;;;;;57.47;27.80;;;;;;;3.18;54.57;99864.81;5457773;32;33871;-65
2022/01/10 04:30:11;;;;;;;55.60;28.63;;;;;;;2.27;56.54;99881.78;5449779;32;36323;-66
2022/01/10 04:33:17;;;;;;;53.13;27.33;;;;;;;2.55;55.39;99879.66;5456690;32;34190;-65
2022/01/10 04:36:19;;;;;;;53.07;27.43;;;;;;;2.44;55.46;99875.47;5432257;32;34708;-67
2022/01/10 04:39:22;;;;;;;60.80;28.13;;;;;;;2.98;54.99;99878.13;5447065;32;34777;-68
2022/01/10 04:42:24;;;;;;;55.30;28.83;;;;;;;1.80;57.33;99880.63;5456122;32;34967;-68
2022/01/10 04:45:26;;;;;;;55.83;28.27;;;;;;;1.99;57.90;99886.44;5446997;32;33832;-66
2022/01/10 04:48:28;;;;;;;56.77;27.47;;;;;;;2.39;56.82;99886.81;5455540;32;34231;-68
2022/01/10 04:51:32;;;;;;;59.83;27.30;;;;;;;2.54;56.75;99894.37;5436588;32;35186;-66
2022/01/10 04:54:34;;;;;;;59.10;28.05;;;;;;;2.89;55.34;99888.63;5455165;32;35099;-66
2022/01/10 04:57:36;;;;;;;58.40;27.37;;;;;;;2.44;56.39;99897.97;5438026;32;34091;-66
2022/01/10 05:00:38;;;;;;;55.03;27.33;;;;;;;2.67;56.58;99895.91;5449101;32;35968;-65
2022/01/10 05:03:41;;;;;;;58.00;27.90;;;;;;;1.94;58.63;99896.03;5443474;32;34057;-66
2022/01/10 05:06:43;;;;;;;50.97;26.73;;;;;;;3.51;53.87;99893.66;5430399;32;35122;-67
2022/01/10 05:09:45;;;;;;;54.00;27.90;;;;;;;3.72;53.24;99898.44;5449957;32;36131;-66
2022/01/10 05:12:48;;;;;;;51.23;28.10;;;;;;;4.05;52.15;99898.69;5428338;32;35236;-67
2022/01/10 05:15:51;;;;;;;49.00;26.40;;;;;;;4.44;50.90;99896.97;5455413;32;35011;-66
2022/01/10 05:18:53;;;;;;;52.65;27.23;;;;;;;3.38;54.20;99902.56;5437799;32;34222;-68
2022/01/10 05:21:55;;;;;;;52.53;27.10;;;;;;;3.90;52.39;99905.06;5452149;32;34212;-68
2022/01/10 05:24:57;;;;;;;54.57;28.37;;;;;;;4.14;52.09;99908.91;5441902;32;34159;-66
2022/01/10 05:27:59;;;;;;;58.67;30.13;;;;;;;3.87;52.46;99901.66;5435843;32;33907;-68
2022/01/10 05:31:02;;;;;;;52.20;26.73;;;;;;;3.26;54.42;99911.41;5443341;32;35058;-66
2022/01/10 05:34:04;;;;;;;58.03;31.20;;;;;;;3.89;52.54;99900.75;5448306;32;34162;-66
2022/01/10 05:37:06;;;;;;;50.57;27.70;;;;;;;3.30;53.92;99913.09;5450617;32;34962;-66
2022/01/10 05:40:09;;;;;;;54.13;26.40;;;;;;;4.39;51.29;99911.00;5426320;32;35118;-65
2022/01/10 05:43:12;;;;;;;54.27;27.00;;;;;;;4.06;51.20;99906.47;5445378;32;34319;-68
2022/01/10 05:46:20;;;;;;;61.00;29.73;;;;;;;3.77;52.28;99909.63;5457582;32;34014;-68
2022/01/10 05:49:27;;;;;;;48.87;26.00;;;;;;;2.48;55.99;99929.91;5449851;32;33914;-67
2022/01/10 05:52:29;;;;;;;50.17;27.33;;;;;;;2.48;55.96;99932.50;5456886;32;33976;-65
2022/01/10 05:55:31;;;;;;;57.37;28.40;;;;;;;1.50;58.54;99938.81;5434972;32;34805;-65
2022/01/10 05:58:34;;;;;;;56.13;29.00;;;;;;;1.88;58.03;99936.69;5450536;32;33944;-66
2022/01/10 06:01:36;;;;;;;57.57;28.20;;;;;;;2.02;57.53;99941.72;5456401;32;34140;-68
2022/01/10 06:04:38;;;;;;;56.13;28.10;;;;;;;2.34;57.35;99938.75;5435172;32;34093;-66
2022/01/10 06:07:42;;;;;;;51.33;26.20;;;;;;;2.89;55.16;99944.88;5450263;32;34836;-65
2022/01/10 06:10:44;;;;;;;61.30;28.17;;;;;;;2.47;56.69;99941.19;5450132;32;34351;-68
2022/01/10 06:13:47;;;;;;;57.63;27.77;;;;;;;2.15;57.05;99945.88;5432675;32;33684;-69
2022/01/10 06:16:49;;;;;;;53.60;26.63;;;;;;;2.47;56.72;99947.22;5440918;32;33953;-65
2022/01/10 06:19:51;;;;;;;60.37;28.30;;;;;;;3.02;55.55;99955.94;5433274;32;34147;-69
2022/01/10 06:22:53;;;;;;;57.20;28.10;;;;;;;3.22;54.41;99944.38;5459161;32;34808;-70
2022/01/10 06:25:55;;;;;;;58.00;28.13;;;;;;;1.95;57.55;99959.97;5436815;32;34779;-68
2022/01/10 06:28:58;;;;;;;57.67;27.57;;;;;;;2.46;56.60;99957.63;5444040;32;33926;-66
2022/01/10 06:32:00;;;;;;;59.37;28.87;;;;;;;2.09;57.65;99964.09;5443738;32;34568;-67
2022/01/10 06:35:03;;;;;;;56.70;29.33;;;;;;;1.81;59.06;99968.75;5450641;32;34722;-66
2022/01/10 06:38:05;;;;;;;53.17;27.87;;;;;;;2.35;57.88;99966.38;5442987;32;35609;-68
2022/01/10 06:41:07;;;;;;;54.53;30.17;;;;;;;3.13;55.79;99974.81;5424529;32;35003;-67
2022/01/10 06:44:09;;;;;;;59.00;29.77;;;;;;;2.54;56.50;99961.81;5454416;32;34123;-68
2022/01/10 06:47:12;;;;;;;55.30;29.33;;;;;;;2.69;57.52;99979.78;5448345;32;34076;-71
2022/01/10 06:50:14;;;;;;;58.97;30.73;;;;;;;1.75;60.18;99999.88;5442779;32;33605;-74
2022/01/10 06:53:17;;;;;;;52.97;29.27;;;;;;;2.05;59.65;99993.53;5426129;32;35534;-73
2022/01/10 06:56:19;;;;;;;60.00;29.52;;;;;;;2.13;59.00;99996.91;5429605;32;34510;-68
2022/01/10 06:59:22;;;;;;;58.60;29.17;;;;;;;2.34;58.25;99977.66;5426575;32;34583;-67
2022/01/10 07:02:24;;;;;;;64.17;29.73;;;;;;;2.63;57.17;100000.59;5440234;32;34161;-68
2022/01/10 07:05:28;;;;;;;64.67;32.57;;;;;;;2.13;58.70;100009.03;5431576;32;34015;-75
2022/01/10 07:08:31;;;;;;;63.20;31.80;;;;;;;1.93;59.96;100023.87;5429005;32;36050;-71
2022/01/10 07:11:34;;;;;;;66.17;30.97;;;;;;;2.48;58.37;100021.56;5438804;32;34400;-67
2022/01/10 07:14:36;;;;;;;73.83;31.30;;;;;;;2.27;58.51;100017.50;5413163;32;34137;-67
2022/01/10 07:17:38;;;;;;;57.30;31.17;;;;;;;2.64;58.06;100017.91;5422527;32;36862;-66
2022/01/10 07:20:41;;;;;;;64.23;32.63;;;;;;;1.85;59.47;100036.94;5445864;32;35340;-74
2022/01/10 07:23:46;;;;;;;58.07;30.47;;;;;;;2.25;58.91;100034.78;5448991;32;34572;-74
2022/01/10 07:26:49;;;;;;;59.50;30.10;;;;;;;1.56;60.58;100026.84;5419516;32;34164;-78
2022/01/10 07:29:51;;;;;;;62.47;30.97;;;;;;;1.66;60.05;100041.41;5442109;32;37196;-71
2022/01/10 07:32:55;;;;;;;61.67;30.10;;;;;;;2.36;58.37;100037.28;5444305;32;33923;-75
2022/01/10 07:36:00;;;;;;;;;;;;;;;1.96;59.42;100049.78;5404550;32;35672;-67
2022/01/10 07:39:03;;;;;;;56.10;27.17;;;;;;;2.47;57.92;100052.72;5434309;32;34653;-71
2022/01/10 07:42:06;;;;;;;54.72;27.62;;;;;;;2.65;57.24;100058.56;5448223;32;35223;-75
2022/01/10 07:45:09;;;;;;;61.50;30.77;;;;;;;2.71;56.88;100055.88;5437292;32;34018;-73
2022/01/10 07:48:11;;;;;;;53.47;27.80;;;;;;;3.37;54.40;100054.97;5422155;32;34245;-69
2022/01/10 07:51:14;;;;;;;56.13;27.73;;;;;;;4.10;52.49;100049.44;5444017;32;34223;-65
2022/01/10 07:54:16;;;;;;;53.33;29.00;;;;;;;2.98;54.87;100059.84;5440015;32;33741;-72
2022/01/10 07:57:19;;;;;;;54.67;28.73;;;;;;;4.07;52.56;100058.16;5407757;32;34548;-70
2022/01/10 08:00:21;;;;;;;58.53;28.23;;;;;;;3.08;54.96;100057.13;5420945;32;34004;-74
2022/01/10 08:03:24;;;;;;;57.37;28.33;;;;;;;2.79;56.14;100070.50;5424255;32;34548;-68
2022/01/10 08:06:27;;;;;;;58.55;29.17;;;;;;;2.90;55.49;100051.31;5430683;32;34056;-68
2022/01/10 08:09:29;;;;;;;64.80;30.47;;;;;;;2.95;55.48;100074.59;5436775;32;34119;-68
2022/01/10 08:12:32;;;;;;;56.93;27.87;;;;;;;3.26;55.86;100073.31;5439621;32;33775;-75
2022/01/10 08:15:34;;;;;;;58.07;30.43;;;;;;;3.76;54.19;100074.28;5426537;32;33287;-76
2022/01/10 08:18:36;;;;;;;55.73;27.70;;;;;;;3.36;55.81;100075.78;5446783;32;33926;-75
2022/01/10 08:21:39;;;;;;;57.87;29.90;;;;;;;2.98;56.02;100069.38;5432528;32;35919;-76
2022/01/10 08:24:41;;;;;;;54.13;30.20;;;;;;;4.00;53.27;100066.97;5447495;32;34381;-66
2022/01/10 08:27:44;;;;;;;59.93;30.47;;;;;;;3.80;54.34;100062.97;5437202;32;35144;-74
2022/01/10 08:30:46;;;;;;;52.47;27.47;;;;;;;4.37;52.46;100061.06;5435930;32;34727;-73
2022/01/10 08:33:48;;;;;;;55.13;27.53;;;;;;;4.15;51.66;100071.03;5438569;32;34102;-75
2022/01/10 08:36:52;;;;;;;59.07;29.07;;;;;;;3.15;54.89;100075.19;5409874;32;34135;-72
2022/01/10 08:39:54;;;;;;;59.70;29.63;;;;;;;2.58;56.84;100080.28;5423411;32;35579;-71
2022/01/10 08:42:56;;;;;;;53.20;28.17;;;;;;;2.55;57.26;100077.69;5427430;32;35112;-69
2022/01/10 08:45:58;;;;;;;59.77;28.77;;;;;;;3.16;55.50;100084.72;5449826;32;34145;-75
2022/01/10 08:49:03;;;;;;;57.20;28.42;;;;;;;3.68;54.96;100088.28;5448475;32;33499;-73
2022/01/10 08:52:06;;;;;;;53.55;27.75;;;;;;;3.53;54.85;100087.63;5440090;32;35089;-70
2022/01/10 08:55:10;;;;;;;54.03;25.23;;;;;;;3.90;52.39;100094.84;5428155;32;34467;-73
2022/01/10 08:58:16;;;;;;;56.27;27.00;;;;;;;4.16;52.46;100099.59;5418432;32;33960;-75
2022/01/10 09:01:21;;;;;;;48.20;25.00;;;;;;;3.32;53.84;100097.50;5355281;32;1556087;-70
2022/01/10 09:04:24;;;;;;;52.63;27.03;;;;;;;3.88;52.32;100100.97;5425819;32;33873;-77
2022/01/10 09:07:27;;;;;;;50.80;26.42;;;;;;;3.73;52.69;100097.72;5429968;32;34145;-79
2022/01/10 09:10:29;;;;;;;56.10;27.23;;;;;;;4.70;50.21;100096.00;5444168;32;33901;-78
2022/01/10 09:13:34;;;;;;;53.60;27.00;;;;;;;4.43;50.69;100092.19;5435117;32;35157;-74
2022/01/10 09:16:37;;;;;;;50.37;25.37;;;;;;;2.87;55.42;100107.59;5432602;32;34733;-72
2022/01/10 09:19:40;;;;;;;51.08;25.08;;;;;;;2.76;54.73;100107.72;5435660;32;35156;-74
2022/01/10 09:22:42;;;;;;;50.87;26.37;;;;;;;2.87;55.33;100107.59;5425951;32;34102;-79
2022/01/10 09:25:45;;;;;;;54.13;26.03;;;;;;;3.63;53.07;100108.28;5432632;32;34046;-71
2022/01/10 09:28:47;;;;;;;53.40;26.63;;;;;;;3.29;54.62;100115.72;5436449;32;33974;-71
2022/01/10 09:31:49;;;;;;;47.97;25.77;;;;;;;4.22;51.92;100114.25;5444431;32;35479;-74
2022/01/10 09:34:52;;;;;;;53.00;25.63;;;;;;;3.47;54.06;100110.25;5418170;32;32974;-72
2022/01/10 09:37:54;;;;;;;48.73;24.30;;;;;;;4.26;51.94;100118.53;5430690;32;33733;-73
2022/01/10 09:40:57;;;;;;;51.53;24.50;;;;;;;2.82;56.14;100119.75;5430689;32;32990;-70
2022/01/10 09:44:02;;;;;;;51.63;24.83;;;;;;;2.75;54.93;100123.31;5449570;32;34561;-71
2022/01/10 09:47:05;;;;;;;48.37;24.80;;;;;;;3.17;54.80;100128.00;5421809;32;32751;-73
2022/01/10 09:50:09;;;;;;;47.87;24.43;;;;;;;3.16;54.51;100115.88;5448581;32;33859;-72
2022/01/10 09:53:16;;;;;;;50.20;25.17;;;;;;;3.09;55.03;100119.44;5436415;32;33936;-68
2022/01/10 09:56:18;;;;;;;52.43;26.23;;;;;;;3.62;53.19;100117.84;5450005;32;34214;-72
2022/01/10 09:59:21;;;;;;;50.97;25.77;;;;;;;2.78;55.68;100124.16;5443230;32;34231;-70
2022/01/10 10:02:30;;;;;;;45.93;23.67;;;;;;;3.81;53.08;100113.22;5430693;32;35279;-73
2022/01/10 10:05:34;;;;;;;45.70;22.23;;;;;;;4.01;51.49;100118.94;5435786;32;35982;-72
2022/01/10 10:08:38;;;;;;;40.80;20.53;;;;;;;2.77;55.08;100118.94;5406447;32;33795;-69
2022/01/10 10:11:44;;;;;;;39.28;20.52;;;;;;;2.81;54.85;100118.91;5449454;32;33891;-70
2022/01/10 10:14:47;;;;;;;42.40;21.20;;;;;;;3.40;53.78;100109.47;5436223;32;34537;-68
2022/01/10 10:17:49;;;;;;;35.93;17.93;;;;;;;3.95;52.28;100112.97;5453160;32;33980;-75
2022/01/10 10:20:53;;;;;;;40.37;21.33;;;;;;;3.83;52.09;100108.84;5446746;32;34160;-73
2022/01/10 10:23:56;;;;;;;;;;;;;;;3.78;52.21;100101.09;5443607;32;34180;-69
2022/01/10 10:26:58;;;;;;;39.70;18.90;;;;;;;3.69;53.15;100109.06;5432050;32;33955;-70
2022/01/10 10:30:09;;;;;;;35.70;17.73;;;;;;;3.86;51.44;100108.78;5448699;32;34321;-71
2022/01/10 10:33:18;;;;;;;36.03;18.50;;;;;;;3.26;53.65;100112.28;5446629;32;35836;-74
2022/01/10 10:36:21;;;;;;;36.20;20.40;;;;;;;3.96;51.72;100105.16;5401124;32;34673;-73
2022/01/10 10:39:25;;;;;;;37.10;19.47;;;;;;;5.00;49.09;100099.72;5443898;32;33854;-72
2022/01/10 10:42:29;;;;;;;40.33;17.97;;;;;;;4.16;50.96;100107.41;5436559;32;34747;-68
2022/01/10 10:45:31;;;;;;;36.00;18.10;;;;;;;4.88;49.58;100104.31;5439950;32;34092;-66
2022/01/10 10:48:37;;;;;;;36.53;17.50;;;;;;;4.85;49.43;100103.53;5428402;32;35686;-69
2022/01/10 10:51:41;;;;;;;33.10;18.10;;;;;;;5.57;47.52;100100.19;5418360;32;32517;-71
2022/01/10 10:54:43;;;;;;;31.23;15.77;;;;;;;5.30;47.16;100101.69;5433313;32;33482;-70
2022/01/10 10:57:48;;;;;;;24.80;12.43;;;;;;;5.65;46.31;100097.41;5437322;32;34686;-70
2022/01/10 11:00:55;;;;;;;26.57;14.13;;;;;;;4.81;47.12;100101.84;5430467;32;34548;-73
2022/01/10 11:03:57;;;;;;;23.97;12.77;;;;;;;4.83;46.92;100102.69;5420477;32;35076;-72
2022/01/10 11:07:00;;;;;;;25.10;12.93;;;;;;;5.71;45.00;100092.91;5418831;32;35330;-69
2022/01/10 11:10:06;;;;;;;26.40;12.73;;;;;;;5.23;46.74;100101.87;5421764;32;34651;-73
2022/01/10 11:13:11;;;;;;;23.97;12.60;;;;;;;5.67;44.66;100100.88;5449352;32;34827;-67
2022/01/10 11:16:17;;;;;;;22.40;11.70;;;;;;;5.65;44.55;100111.31;5435744;32;33854;-71
2022/01/10 11:19:28;;;;;;;23.65;11.90;;;;;;;6.31;42.47;100109.75;5437353;32;34087;-67
2022/01/10 11:22:30;;;;;;;23.23;11.30;;;;;;;7.07;40.84;100097.16;5437656;32;33077;-70
2022/01/10 11:25:35;;;;;;;25.40;11.60;;;;;;;5.75;42.96;100114.56;5450684;32;34816;-72
2022/01/10 11:28:52;;;;;;;21.90;10.73;;;;;;;5.90;42.60;100113.34;5446751;32;34498;-71
2022/01/10 11:31:54;;;;;;;24.50;11.37;;;;;;;5.76;42.92;100111.06;5436156;32;35382;-71
2022/01/10 11:35:05;;;;;;;23.17;11.60;;;;;;;6.51;41.48;100119.66;5443323;32;35137;-75
2022/01/10 11:38:49;;;;;;;22.52;11.85;;;;;;;5.67;43.08;100119.97;5428177;32;36749;-73
2022/01/10 11:41:54;;;;;;;24.00;12.53;;;;;;;5.78;43.22;100121.44;5426573;32;33922;-65
2022/01/10 11:45:11;;;;;;;25.10;12.45;;;;;;;7.20;40.62;100118.53;5433463;32;34580;-69
2022/01/10 11:48:15;;;;;;;22.53;12.27;;;;;;;5.85;42.30;100129.09;5450504;32;34180;-70
2022/01/10 11:51:21;;;;;;;24.03;12.80;;;;;;;6.14;41.62;100130.19;5425627;32;34065;-66
2022/01/10 11:54:28;;;;;;;21.97;12.23;;;;;;;5.91;42.70;100128.97;5453173;32;34595;-76
2022/01/10 11:57:32;;;;;;;25.17;12.37;;;;;;;7.10;39.21;100131.94;5457083;32;34861;-75
2022/01/10 12:00:36;;;;;;;20.93;9.60;;;;;;;7.02;39.53;100133.03;5449254;32;35173;-80
2022/01/10 12:03:38;;;;;;;;;;;;;;;7.60;37.60;100135.66;5436043;32;35351;-73
2022/01/10 12:06:41;;;;;;;22.20;9.47;;;;;;;6.94;38.23;100147.19;5450022;32;33976;-71
2022/01/10 12:09:45;;;;;;;19.00;9.73;;;;;;;6.48;38.34;100151.03;5433596;32;33941;-72
2022/01/10 12:12:50;;;;;;;24.48;10.50;;;;;;;7.17;37.35;100146.56;5449439;32;34032;-70
2022/01/10 12:15:56;;;;;;;21.40;10.20;;;;;;;8.15;36.00;100145.22;5431872;32;34598;-73
2022/01/10 12:18:58;;;;;;;19.37;9.70;;;;;;;9.66;33.56;100135.44;5438690;32;33840;-77
2022/01/10 12:22:01;;;;;;;19.13;9.50;;;;;;;12.44;28.69;100131.72;5452535;32;35367;-74
2022/01/10 12:25:06;;;;;;;18.25;9.57;;;;;;;12.82;27.46;100120.97;5444547;32;33940;-77
2022/01/10 12:28:09;;;;;;;16.83;9.40;;;;;;;11.49;28.97;100134.59;5445595;32;34839;-80
2022/01/10 12:31:11;;;;;;;17.30;9.15;;;;;;;12.34;27.58;100133.09;5427740;32;34053;-69
2022/01/10 12:34:15;;;;;;;19.47;9.37;;;;;;;10.40;29.82;100147.31;5442925;32;34255;-75
2022/01/10 12:37:17;;;;;;;18.20;9.55;;;;;;;9.05;32.92;100153.50;5438202;32;36629;-74
2022/01/10 12:40:23;;;;;;;16.50;8.23;;;;;;;9.58;32.02;100148.00;5448638;32;35618;-70
2022/01/10 12:43:25;;;;;;;16.85;9.13;;;;;;;10.53;30.31;100145.87;5447958;32;34145;-69
2022/01/10 12:46:32;;;;;;;17.30;8.82;;;;;;;11.82;28.42;100146.19;5447287;32;34229;-73
2022/01/10 12:49:36;;;;;;;16.27;8.27;;;;;;;10.02;30.52;100156.75;5426555;32;36222;-77
2022/01/10 12:52:40;;;;;;;17.57;8.00;;;;;;;7.73;34.55;100180.59;5445298;32;35524;-80
2022/01/10 12:55:43;;;;;;;18.83;9.10;;;;;;;8.73;33.17;100170.38;5451010;32;34055;-79
2022/01/10 12:58:46;;;;;;;16.37;7.97;;;;;;;8.34;33.65;100171.66;5446295;32;35182;-80
2022/01/10 13:01:55;;;;;;;16.70;8.70;;;;;;;7.85;34.52;100180.22;5429508;32;34035;-79
2022/01/10 13:05:24;;;;;;;;;;;;;;;;;;;;;
2022/01/10 13:08:36;;;;;;;15.63;7.73;;;;;;;8.27;33.41;100188.47;5434552;32;35210;-67
2022/01/10 13:12:02;;;;;;;19.60;9.20;;;;;;;6.35;36.73;100205.31;5417867;32;34219;-75
2022/01/10 13:15:42;;;;;;;16.47;7.23;;;;;;;6.56;36.74;100208.28;5447754;32;35551;-78
2022/01/10 13:18:59;;;;;;;17.93;7.97;;;;;;;6.48;36.01;100219.78;5449525;32;34470;-75
2022/01/10 13:22:10;;;;;;;15.57;7.17;;;;;;;6.40;36.29;100223.50;5419551;32;35649;-75
2022/01/10 13:25:33;;;;;;;13.77;6.67;;;;;;;6.31;36.31;100229.81;5447729;32;36461;-81
2022/01/10 13:28:41;;;;;;;;;;;;;;;6.57;35.93;100230.87;5448080;32;32817;-78
2022/01/10 13:32:12;;;;;;;16.53;6.17;;;;;;;6.42;35.91;100238.22;5441237;32;36434;-77
2022/01/10 13:35:19;;;;;;;19.40;7.20;;;;;;;5.57;37.64;100245.34;5447214;32;34459;-73
2022/01/10 13:38:29;;;;;;;15.20;6.80;;;;;;;6.21;36.78;100243.94;5434232;32;32538;-70
2022/01/10 13:42:21;;;;;;;15.77;6.80;;;;;;;6.23;37.06;100242.16;5446345;32;35300;-76
2022/01/10 13:46:16;;;;;;;16.97;6.13;;;;;;;6.83;35.52;100236.31;5443917;32;35260;-76
2022/01/10 13:49:44;;;;;;;13.67;6.57;;;;;;;6.15;36.76;100249.31;5428944;32;37199;-73
2022/01/10 13:53:10;;;;;;;14.87;6.70;;;;;;;5.92;37.47;100248.06;5452286;32;33809;-79
2022/01/10 13:57:08;;;;;;;13.63;6.53;;;;;;;6.24;36.82;100249.09;5447271;32;35911;-70
2022/01/10 14:00:53;;;;;;;16.43;6.70;;;;;;;6.15;37.14;100251.91;5410994;32;34218;-74
2022/01/10 14:04:47;;;;;;;;;;;;;;;;;;;;;
2022/01/10 14:08:27;;;;;;;14.38;6.18;;;;;;;6.93;35.86;100266.53;5351882;32;36228;-76
2022/01/10 14:11:40;;;;;;;15.80;7.33;;;;;;;7.59;34.47;100272.56;5392462;32;34865;-73
2022/01/10 14:15:01;;;;;;;16.00;7.20;;;;;;;8.72;32.77;100273.47;5430570;32;35546;-74
2022/01/10 14:18:13;;;;;;;16.40;6.97;;;;;;;8.37;33.40;100280.69;5445199;32;33671;-72
2022/01/10 14:21:24;;;;;;;13.17;6.47;;;;;;;8.40;32.63;100284.09;5439524;32;33939;-72
2022/01/10 14:24:26;;;;;;;14.60;6.47;;;;;;;7.60;34.33;100290.84;5446873;32;33940;-78
2022/01/10 14:27:36;;;;;;;16.13;6.50;;;;;;;8.36;33.34;100298.19;5436996;32;32606;-73
2022/01/10 14:30:52;;;;;;;15.40;6.30;;;;;;;6.74;35.60;100300.09;5448261;32;35591;-76